Time;durP1;ratioP1;P1;durP2;ratioP2;P2;SDS_P1;SDS_P2;PMS_P1;PMS_P2;Temp;Humidity;BMP_temperature;BMP_pressure;BME280_temperature;BME280_humidity;BME280_pressure;Samples;Min_cycle;Max_cycle;Signal;HPM_P1;HPM_P2
2024/01/19 00:00:41;;;;;;;11.23;6.03;;;;;;;;;;5060901;28;20507;-77
2024/01/19 00:03:06;;;;;;;10.30;5.78;;;;;;;;;;5060590;28;20090;-78
2024/01/19 00:05:32;;;;;;;8.88;5.78;;;;;;;;;;5042890;28;20059;-77
2024/01/19 00:07:57;;;;;;;9.98;5.45;;;;;;;;;;5049464;28;20401;-77
2024/01/19 00:10:22;;;;;;;11.73;5.60;;;;;;;;;;5051038;28;20033;-77
2024/01/19 00:12:48;;;;;;;7.75;5.18;;;;;;;;;;5040656;28;20040;-77
2024/01/19 00:15:13;;;;;;;8.63;5.35;;;;;;;;;;5062692;28;20040;-76
2024/01/19 00:17:39;;;;;;;9.60;5.13;;;;;;;;;;5069789;28;20028;-77
2024/01/19 00:20:08;;;;;;;8.25;5.32;;;;;;;;;;5055876;28;20107;-77
2024/01/19 00:22:34;;;;;;;9.25;5.88;;;;;;;;;;5065863;28;20089;-77
2024/01/19 00:24:59;;;;;;;9.02;5.80;;;;;;;;;;5053501;28;20462;-76
2024/01/19 00:27:25;;;;;;;11.27;5.70;;;;;;;;;;5052951;28;20111;-77
2024/01/19 00:29:50;;;;;;;10.48;5.72;;;;;;;;;;5070314;28;20471;-76
2024/01/19 00:32:15;;;;;;;10.68;5.53;;;;;;;;;;5054561;28;20482;-77
2024/01/19 00:34:41;;;;;;;7.88;4.95;;;;;;;;;;5048695;28;20497;-77
2024/01/19 00:37:07;;;;;;;8.20;3.92;;;;;;;;;;5048754;28;20111;-77
2024/01/19 00:39:32;;;;;;;5.90;2.97;;;;;;;;;;5067490;28;20021;-77
2024/01/19 00:41:58;;;;;;;5.25;2.80;;;;;;;;;;5046358;28;20036;-77
2024/01/19 00:44:23;;;;;;;6.07;2.80;;;;;;;;;;5070643;28;20030;-77
2024/01/19 00:46:50;;;;;;;5.03;2.22;;;;;;;;;;5066330;28;20032;-77
2024/01/19 00:49:16;;;;;;;5.00;2.35;;;;;;;;;;5066771;28;20087;-77
2024/01/19 00:51:41;;;;;;;6.30;2.30;;;;;;;;;;5051666;28;20332;-77
2024/01/19 00:54:07;;;;;;;5.35;2.22;;;;;;;;;;5060701;28;20479;-78
2024/01/19 00:56:33;;;;;;;5.35;1.98;;;;;;;;;;5046878;28;20035;-79
2024/01/19 00:58:58;;;;;;;3.28;2.00;;;;;;;;;;5061296;28;20040;-77
2024/01/19 01:01:24;;;;;;;3.72;1.88;;;;;;;;;;5045129;28;20089;-77
2024/01/19 01:03:49;;;;;;;3.95;1.88;;;;;;;;;;5063033;28;20462;-77
2024/01/19 01:06:15;;;;;;;4.78;1.70;;;;;;;;;;5048782;28;20029;-77
2024/01/19 01:08:40;;;;;;;4.03;2.10;;;;;;;;;;5064152;28;20053;-85
2024/01/19 01:11:05;;;;;;;3.45;1.58;;;;;;;;;;5059610;28;20471;-85
2024/01/19 01:13:32;;;;;;;4.53;1.85;;;;;;;;;;5067961;28;20447;-85
2024/01/19 01:15:58;;;;;;;3.50;1.67;;;;;;;;;;5065289;28;20107;-85
2024/01/19 01:18:23;;;;;;;4.50;2.22;;;;;;;;;;5064517;28;20115;-85
2024/01/19 01:20:52;;;;;;;6.07;3.03;;;;;;;;;;5067706;28;20402;-84
2024/01/19 01:23:18;;;;;;;5.50;3.55;;;;;;;;;;5048081;28;20489;-85
2024/01/19 01:25:44;;;;;;;7.55;3.90;;;;;;;;;;5061458;28;20100;-85
2024/01/19 01:28:09;;;;;;;8.98;4.97;;;;;;;;;;5049117;28;20489;-85
2024/01/19 01:30:35;;;;;;;5.63;3.90;;;;;;;;;;5066123;28;20028;-85
2024/01/19 01:33:00;;;;;;;10.02;4.45;;;;;;;;;;5069300;28;20482;-85
2024/01/19 01:35:25;;;;;;;8.95;4.32;;;;;;;;;;5044084;28;20025;-85
2024/01/19 01:37:51;;;;;;;7.65;4.13;;;;;;;;;;5067681;28;20669;-86
2024/01/19 01:40:16;;;;;;;7.63;4.45;;;;;;;;;;5064988;28;20046;-85
2024/01/19 01:42:42;;;;;;;8.02;4.30;;;;;;;;;;5064677;28;20090;-85
2024/01/19 01:45:07;;;;;;;8.50;4.45;;;;;;;;;;5065020;28;20059;-85
2024/01/19 01:47:34;;;;;;;7.93;4.28;;;;;;;;;;5062457;28;20788;-85
2024/01/19 01:50:00;;;;;;;6.35;4.28;;;;;;;;;;5042837;28;20056;-85
2024/01/19 01:52:26;;;;;;;8.68;4.40;;;;;;;;;;5059290;28;20073;-85
2024/01/19 01:54:52;;;;;;;7.38;4.15;;;;;;;;;;5045998;28;20292;-85
2024/01/19 01:57:20;;;;;;;6.90;4.10;;;;;;;;;;5060985;28;20028;-86
2024/01/19 01:59:49;;;;;;;9.32;4.53;;;;;;;;;;5062899;28;20024;-85
2024/01/19 02:02:14;;;;;;;7.38;4.68;;;;;;;;;;5043821;28;20032;-77
2024/01/19 02:04:40;;;;;;;8.75;4.80;;;;;;;;;;5061204;23;20560;-82
2024/01/19 02:07:06;;;;;;;8.23;4.57;;;;;;;;;;5063506;28;20032;-82
2024/01/19 02:09:31;;;;;;;10.38;4.47;;;;;;;;;;5049516;28;20024;-82
2024/01/19 02:11:57;;;;;;;8.05;4.32;;;;;;;;;;5069072;28;20161;-82
2024/01/19 02:14:23;;;;;;;7.97;4.50;;;;;;;;;;5051315;28;21613;-82
2024/01/19 02:16:48;;;;;;;6.15;4.35;;;;;;;;;;5065782;28;20506;-82
2024/01/19 02:19:13;;;;;;;6.88;4.00;;;;;;;;;;5048794;28;20395;-82
2024/01/19 02:21:39;;;;;;;9.90;4.38;;;;;;;;;;5064767;28;20032;-82
2024/01/19 02:24:06;;;;;;;9.55;4.50;;;;;;;;;;5050866;28;20023;-82
2024/01/19 02:26:34;;;;;;;8.35;4.55;;;;;;;;;;5067994;28;20024;-82
2024/01/19 02:29:00;;;;;;;9.48;4.32;;;;;;;;;;5066459;28;20092;-82
2024/01/19 02:31:26;;;;;;;7.47;4.03;;;;;;;;;;5064617;28;20454;-82
2024/01/19 02:33:51;;;;;;;5.30;3.30;;;;;;;;;;5050513;28;20024;-82
2024/01/19 02:36:17;;;;;;;6.32;3.50;;;;;;;;;;5050877;28;20422;-82
2024/01/19 02:38:43;;;;;;;6.30;3.53;;;;;;;;;;5065403;28;20028;-82
2024/01/19 02:41:08;;;;;;;6.05;3.40;;;;;;;;;;5067232;28;20490;-82
2024/01/19 02:43:34;;;;;;;6.35;3.15;;;;;;;;;;5067547;28;20052;-82
2024/01/19 02:45:59;;;;;;;7.00;3.30;;;;;;;;;;5066542;28;20482;-82
2024/01/19 02:48:25;;;;;;;5.07;2.80;;;;;;;;;;5062025;28;20032;-83
2024/01/19 02:50:51;;;;;;;10.13;3.50;;;;;;;;;;5032090;28;20467;-82
2024/01/19 02:53:17;;;;;;;5.22;3.05;;;;;;;;;;5063577;28;20060;-82
2024/01/19 02:55:42;;;;;;;6.47;3.20;;;;;;;;;;5064689;28;20114;-83
2024/01/19 02:58:08;;;;;;;6.32;3.20;;;;;;;;;;5067839;28;20394;-82
2024/01/19 03:00:33;;;;;;;6.30;2.97;;;;;;;;;;5062836;28;20021;-82
2024/01/19 03:02:58;;;;;;;7.40;3.47;;;;;;;;;;5050815;28;20410;-82
2024/01/19 03:05:25;;;;;;;5.78;3.47;;;;;;;;;;5051271;28;20493;-83
2024/01/19 03:07:50;;;;;;;6.60;3.35;;;;;;;;;;5069458;28;20776;-82
2024/01/19 03:10:16;;;;;;;6.95;3.90;;;;;;;;;;5065132;28;20040;-82
2024/01/19 03:12:41;;;;;;;8.02;3.83;;;;;;;;;;5048188;28;20536;-82
2024/01/19 03:15:07;;;;;;;8.43;3.75;;;;;;;;;;5048832;28;20028;-82
2024/01/19 03:17:35;;;;;;;6.50;3.85;;;;;;;;;;5068822;28;20021;-79
2024/01/19 03:20:01;;;;;;;8.00;3.90;;;;;;;;;;5066207;28;20052;-78
2024/01/19 03:22:28;;;;;;;9.40;3.60;;;;;;;;;;5046812;28;20106;-78
2024/01/19 03:24:54;;;;;;;6.07;3.75;;;;;;;;;;5050163;28;20021;-78
2024/01/19 03:27:20;;;;;;;5.95;4.00;;;;;;;;;;5045145;28;20029;-78
2024/01/19 03:29:47;;;;;;;6.88;3.67;;;;;;;;;;5049671;28;20031;-78
2024/01/19 03:32:13;;;;;;;7.13;3.60;;;;;;;;;;5065282;28;20048;-78
2024/01/19 03:34:40;;;;;;;6.75;3.38;;;;;;;;;;5068362;28;20040;-77
2024/01/19 03:37:05;;;;;;;7.35;3.10;;;;;;;;;;5062255;28;20033;-78
2024/01/19 03:39:32;;;;;;;4.18;2.58;;;;;;;;;;5035260;28;20031;-78
2024/01/19 03:41:58;;;;;;;5.28;2.88;;;;;;;;;;5062225;28;20063;-78
2024/01/19 03:44:25;;;;;;;7.30;3.03;;;;;;;;;;5067378;28;20056;-77
2024/01/19 03:46:51;;;;;;;6.68;3.42;;;;;;;;;;5064991;28;20029;-78
2024/01/19 03:49:17;;;;;;;5.15;3.00;;;;;;;;;;5067351;28;20448;-78
2024/01/19 03:52:00;;;;;;;5.43;3.05;;;;;;;;;;5048996;28;20052;-77
2024/01/19 03:54:26;;;;;;;6.43;3.25;;;;;;;;;;5051829;28;20246;-78
2024/01/19 03:56:52;;;;;;;8.15;3.10;;;;;;;;;;5048550;28;20029;-77
2024/01/19 03:59:18;;;;;;;4.85;2.90;;;;;;;;;;5067529;28;20041;-78
2024/01/19 04:01:43;;;;;;;6.75;3.17;;;;;;;;;;5045696;28;20555;-78
2024/01/19 04:04:09;;;;;;;5.35;3.05;;;;;;;;;;5067856;28;20031;-77
2024/01/19 04:06:34;;;;;;;4.45;2.70;;;;;;;;;;5068289;28;20459;-77
2024/01/19 04:08:59;;;;;;;5.00;2.78;;;;;;;;;;5067240;28;20059;-78
2024/01/19 04:11:25;;;;;;;9.68;3.30;;;;;;;;;;5048632;28;20082;-78
2024/01/19 04:13:50;;;;;;;5.28;3.03;;;;;;;;;;5069148;28;20051;-78
2024/01/19 04:16:15;;;;;;;6.28;2.90;;;;;;;;;;5068120;28;20033;-78
2024/01/19 04:18:41;;;;;;;5.57;2.92;;;;;;;;;;5069590;28;20684;-78
2024/01/19 04:21:07;;;;;;;6.43;3.10;;;;;;;;;;5053627;28;20035;-78
2024/01/19 04:23:32;;;;;;;5.65;3.17;;;;;;;;;;5053224;28;20512;-78
2024/01/19 04:25:58;;;;;;;7.55;3.05;;;;;;;;;;5064708;28;20809;-78
2024/01/19 04:28:23;;;;;;;5.57;3.20;;;;;;;;;;5048315;28;20102;-82
2024/01/19 04:30:48;;;;;;;5.82;3.17;;;;;;;;;;5064876;28;20111;-82
2024/01/19 04:33:14;;;;;;;9.07;3.80;;;;;;;;;;5045761;28;20391;-82
2024/01/19 04:35:39;;;;;;;7.18;3.15;;;;;;;;;;5065373;28;20044;-82
2024/01/19 04:38:04;;;;;;;4.40;2.80;;;;;;;;;;5045661;28;20032;-82
2024/01/19 04:40:30;;;;;;;5.63;3.13;;;;;;;;;;5047396;28;20457;-82
2024/01/19 04:42:55;;;;;;;5.32;3.13;;;;;;;;;;5061780;28;20059;-82
2024/01/19 04:45:21;;;;;;;6.35;3.50;;;;;;;;;;5060168;28;20024;-82
2024/01/19 04:47:46;;;;;;;6.50;3.42;;;;;;;;;;5064035;28;20426;-82
2024/01/19 04:50:12;;;;;;;6.18;3.35;;;;;;;;;;5064362;28;20147;-82
2024/01/19 04:52:37;;;;;;;8.75;3.42;;;;;;;;;;5063986;28;20031;-82
2024/01/19 04:55:03;;;;;;;6.35;3.20;;;;;;;;;;5049051;28;20056;-82
2024/01/19 04:57:28;;;;;;;5.50;3.30;;;;;;;;;;5047576;28;20109;-82
2024/01/19 04:59:54;;;;;;;7.40;3.55;;;;;;;;;;5065260;28;20085;-82
2024/01/19 05:02:19;;;;;;;5.78;3.20;;;;;;;;;;5065651;28;20040;-82
2024/01/19 05:04:44;;;;;;;7.47;3.38;;;;;;;;;;5063127;28;20102;-82
2024/01/19 05:07:10;;;;;;;6.13;3.75;;;;;;;;;;5066614;28;20106;-82
2024/01/19 05:09:35;;;;;;;6.57;3.80;;;;;;;;;;5063653;28;20113;-82
2024/01/19 05:12:01;;;;;;;8.30;3.92;;;;;;;;;;5044706;28;20036;-82
2024/01/19 05:14:26;;;;;;;6.75;4.07;;;;;;;;;;5059973;28;20024;-82
2024/01/19 05:16:52;;;;;;;8.80;3.90;;;;;;;;;;5062926;28;20042;-82
2024/01/19 05:19:17;;;;;;;8.52;3.80;;;;;;;;;;5034525;28;20054;-82
2024/01/19 05:21:42;;;;;;;7.40;3.95;;;;;;;;;;5064121;28;20482;-82
2024/01/19 05:24:08;;;;;;;8.20;4.20;;;;;;;;;;5062288;28;20036;-82
2024/01/19 05:26:33;;;;;;;6.95;4.10;;;;;;;;;;5047831;28;20378;-82
2024/01/19 05:28:58;;;;;;;6.82;3.53;;;;;;;;;;5047481;28;20027;-82
2024/01/19 05:31:24;;;;;;;7.80;3.70;;;;;;;;;;5061211;28;20028;-82
2024/01/19 05:33:49;;;;;;;6.68;3.22;;;;;;;;;;5060705;28;20025;-82
2024/01/19 05:36:15;;;;;;;10.38;3.83;;;;;;;;;;5048453;28;20028;-82
2024/01/19 05:38:40;;;;;;;4.95;2.60;;;;;;;;;;5066487;28;20032;-78
2024/01/19 05:41:06;;;;;;;4.15;2.65;;;;;;;;;;5066186;28;20035;-78
2024/01/19 05:43:32;;;;;;;5.68;2.30;;;;;;;;;;5059987;28;20022;-78
2024/01/19 05:45:58;;;;;;;4.60;1.92;;;;;;;;;;5057666;28;20458;-78
2024/01/19 05:48:25;;;;;;;3.97;2.20;;;;;;;;;;5046687;28;20041;-78
2024/01/19 05:50:50;;;;;;;4.25;2.80;;;;;;;;;;5066132;28;20073;-78
2024/01/19 05:53:15;;;;;;;6.22;2.75;;;;;;;;;;5041250;28;20029;-78
2024/01/19 05:55:43;;;;;;;4.72;2.58;;;;;;;;;;5043034;28;20506;-78
2024/01/19 05:58:08;;;;;;;5.20;3.20;;;;;;;;;;5046147;28;20032;-78
2024/01/19 06:00:34;;;;;;;5.25;2.90;;;;;;;;;;5046372;28;20163;-78
2024/01/19 06:02:59;;;;;;;8.27;3.50;;;;;;;;;;5064970;28;20417;-78
2024/01/19 06:05:24;;;;;;;5.35;3.25;;;;;;;;;;5047494;28;20389;-77
2024/01/19 06:07:50;;;;;;;6.10;3.67;;;;;;;;;;5046711;28;20767;-78
2024/01/19 06:10:15;;;;;;;5.47;3.58;;;;;;;;;;5060874;28;20036;-78
2024/01/19 06:12:41;;;;;;;6.57;3.90;;;;;;;;;;5046116;28;20031;-78
2024/01/19 06:15:07;;;;;;;6.47;3.50;;;;;;;;;;5052318;28;20037;-78
2024/01/19 06:17:32;;;;;;;9.15;3.78;;;;;;;;;;5063821;28;20036;-77
2024/01/19 06:19:58;;;;;;;6.88;3.47;;;;;;;;;;5048239;28;20033;-78
2024/01/19 06:22:24;;;;;;;7.35;3.90;;;;;;;;;;5046808;28;20540;-78
2024/01/19 06:24:52;;;;;;;6.28;3.60;;;;;;;;;;5065583;28;20024;-78
2024/01/19 06:27:21;;;;;;;6.93;3.58;;;;;;;;;;5044968;28;20048;-78
2024/01/19 06:29:46;;;;;;;8.35;3.90;;;;;;;;;;5062352;28;20033;-77
2024/01/19 06:32:13;;;;;;;8.45;4.22;;;;;;;;;;5048387;28;20399;-77
2024/01/19 06:34:40;;;;;;;6.88;3.83;;;;;;;;;;5046817;28;20487;-78
2024/01/19 06:37:05;;;;;;;6.32;3.95;;;;;;;;;;5060709;28;20029;-77
2024/01/19 06:39:31;;;;;;;7.28;4.40;;;;;;;;;;5060637;28;20078;-78
2024/01/19 06:41:56;;;;;;;8.88;4.30;;;;;;;;;;5062969;28;20485;-78
2024/01/19 06:44:21;;;;;;;8.30;5.03;;;;;;;;;;5063113;28;20048;-78
2024/01/19 06:46:47;;;;;;;7.68;4.35;;;;;;;;;;5052427;28;20120;-78
2024/01/19 06:49:13;;;;;;;10.13;5.00;;;;;;;;;;5039282;28;20478;-78
2024/01/19 06:51:39;;;;;;;8.50;4.82;;;;;;;;;;5045713;28;20032;-78
2024/01/19 06:54:04;;;;;;;8.55;4.88;;;;;;;;;;5067589;28;20024;-78
2024/01/19 06:56:30;;;;;;;7.30;4.57;;;;;;;;;;5047361;28;20028;-79
2024/01/19 06:58:56;;;;;;;8.48;4.28;;;;;;;;;;5058631;28;20036;-78
2024/01/19 07:01:23;;;;;;;8.85;5.10;;;;;;;;;;5063266;28;20029;-78
2024/01/19 07:03:48;;;;;;;7.32;4.22;;;;;;;;;;5062884;28;20111;-78
2024/01/19 07:06:13;;;;;;;9.25;5.15;;;;;;;;;;5040316;28;20064;-78
2024/01/19 07:08:39;;;;;;;10.60;5.25;;;;;;;;;;5040500;28;20067;-78
2024/01/19 07:11:04;;;;;;;8.13;5.00;;;;;;;;;;5025739;28;20033;-78
2024/01/19 07:13:30;;;;;;;9.38;5.03;;;;;;;;;;5051412;28;20501;-78
2024/01/19 07:15:55;;;;;;;9.50;5.22;;;;;;;;;;5066622;28;20174;-78
2024/01/19 07:18:20;;;;;;;9.40;5.40;;;;;;;;;;5069674;28;20094;-78
2024/01/19 07:20:46;;;;;;;9.40;5.60;;;;;;;;;;5065734;28;20107;-78
2024/01/19 07:23:11;;;;;;;9.38;5.35;;;;;;;;;;5052034;28;20036;-78
2024/01/19 07:25:36;;;;;;;8.30;5.45;;;;;;;;;;5049951;28;20478;-78
2024/01/19 07:28:02;;;;;;;8.93;5.97;;;;;;;;;;5047126;28;20025;-78
2024/01/19 07:30:28;;;;;;;8.57;5.25;;;;;;;;;;5065651;28;20024;-78
2024/01/19 07:32:53;;;;;;;7.35;4.63;;;;;;;;;;5047753;28;20031;-78
2024/01/19 07:35:19;;;;;;;8.85;5.20;;;;;;;;;;5046248;28;20082;-78
2024/01/19 07:37:45;;;;;;;9.00;5.47;;;;;;;;;;5049926;28;20056;-77
2024/01/19 07:40:11;;;;;;;9.38;5.22;;;;;;;;;;5047444;28;20056;-77
2024/01/19 07:42:36;;;;;;;9.30;5.30;;;;;;;;;;5034066;28;20501;-77
2024/01/19 07:45:02;;;;;;;10.82;5.53;;;;;;;;;;5050522;28;20031;-78
2024/01/19 07:47:28;;;;;;;9.13;5.70;;;;;;;;;;5067842;28;20509;-78
2024/01/19 07:49:53;;;;;;;10.05;5.97;;;;;;;;;;5043907;28;20039;-78
2024/01/19 07:52:18;;;;;;;9.35;5.63;;;;;;;;;;5049583;28;20025;-78
2024/01/19 07:54:44;;;;;;;10.93;5.57;;;;;;;;;;5049932;28;20094;-78
2024/01/19 07:57:09;;;;;;;9.68;5.93;;;;;;;;;;5049171;28;20035;-78
2024/01/19 07:59:35;;;;;;;9.82;5.97;;;;;;;;;;5068610;28;20143;-77
2024/01/19 08:02:03;;;;;;;10.00;5.68;;;;;;;;;;5063326;28;20102;-78
2024/01/19 08:04:30;;;;;;;9.40;5.75;;;;;;;;;;5059573;28;20074;-78
2024/01/19 08:06:55;;;;;;;10.10;5.82;;;;;;;;;;5048841;28;20051;-78
2024/01/19 08:09:21;;;;;;;11.30;6.32;;;;;;;;;;5065276;28;20048;-78
2024/01/19 08:11:46;;;;;;;10.82;6.13;;;;;;;;;;5066587;28;20489;-78
2024/01/19 08:14:13;;;;;;;11.90;6.85;;;;;;;;;;5066020;28;20494;-78
2024/01/19 08:16:42;;;;;;;10.65;6.05;;;;;;;;;;5033359;28;20024;-78
2024/01/19 08:19:07;;;;;;;11.57;5.57;;;;;;;;;;5060714;28;20068;-78
2024/01/19 08:21:40;;;;;;;10.32;6.32;;;;;;;;;;5048818;28;20440;-78
2024/01/19 08:24:05;;;;;;;12.60;6.53;;;;;;;;;;5054915;28;20035;-78
2024/01/19 08:26:31;;;;;;;10.98;6.25;;;;;;;;;;5066819;28;20036;-77
2024/01/19 08:28:56;;;;;;;8.60;5.97;;;;;;;;;;5065703;28;20024;-77
2024/01/19 08:31:21;;;;;;;10.68;5.85;;;;;;;;;;5048575;28;20448;-77
2024/01/19 08:33:47;;;;;;;9.80;5.82;;;;;;;;;;5064992;28;20102;-77
2024/01/19 08:36:12;;;;;;;11.68;6.22;;;;;;;;;;5052528;28;20029;-77
2024/01/19 08:38:38;;;;;;;14.00;6.50;;;;;;;;;;5047624;28;20918;-77
2024/01/19 08:41:03;;;;;;;9.70;6.75;;;;;;;;;;5049881;28;20036;-77
2024/01/19 08:43:28;;;;;;;10.88;6.18;;;;;;;;;;5050626;28;20051;-77
2024/01/19 08:45:54;;;;;;;10.65;7.15;;;;;;;;;;5064272;28;20099;-77
2024/01/19 08:48:19;;;;;;;9.45;6.25;;;;;;;;;;5066872;28;20375;-77
2024/01/19 08:50:45;;;;;;;10.55;6.35;;;;;;;;;;5064050;28;20276;-77
2024/01/19 08:53:10;;;;;;;11.95;6.40;;;;;;;;;;5066043;28;20028;-77
2024/01/19 08:55:39;;;;;;;9.88;6.05;;;;;;;;;;5065671;28;20024;-77
2024/01/19 08:58:04;;;;;;;10.05;6.38;;;;;;;;;;5065882;28;20031;-77
2024/01/19 09:00:29;;;;;;;10.98;6.93;;;;;;;;;;5063012;28;20402;-77
2024/01/19 09:02:56;;;;;;;13.27;7.05;;;;;;;;;;5047837;28;20033;-77
2024/01/19 09:05:22;;;;;;;10.98;6.53;;;;;;;;;;5063879;28;20511;-77
2024/01/19 09:07:47;;;;;;;10.93;6.75;;;;;;;;;;5050801;28;20032;-79
2024/01/19 09:10:12;;;;;;;9.35;6.40;;;;;;;;;;5049240;28;20040;-80
2024/01/19 09:12:38;;;;;;;10.80;6.35;;;;;;;;;;5064713;28;20139;-80
2024/01/19 09:15:04;;;;;;;14.25;6.90;;;;;;;;;;5048755;28;20052;-80
2024/01/19 09:17:29;;;;;;;12.25;6.60;;;;;;;;;;5048077;28;20402;-80
2024/01/19 09:19:54;;;;;;;11.57;6.95;;;;;;;;;;5068605;28;20032;-80
2024/01/19 09:22:20;;;;;;;11.75;6.90;;;;;;;;;;5063154;28;20051;-81
2024/01/19 09:24:46;;;;;;;10.18;6.85;;;;;;;;;;5064224;28;20462;-80
2024/01/19 09:27:12;;;;;;;13.45;7.20;;;;;;;;;;5047601;28;20111;-81
2024/01/19 09:29:37;;;;;;;11.18;7.28;;;;;;;;;;5047298;28;20569;-80
2024/01/19 09:32:03;;;;;;;13.68;7.32;;;;;;;;;;5048439;28;20025;-81
2024/01/19 09:34:28;;;;;;;13.73;7.55;;;;;;;;;;5061269;28;21567;-81
2024/01/19 09:36:53;;;;;;;12.70;7.90;;;;;;;;;;5046379;28;20036;-81
2024/01/19 09:39:23;;;;;;;13.85;7.97;;;;;;;;;;5065418;28;20074;-81
2024/01/19 09:41:52;;;;;;;11.43;6.63;;;;;;;;;;5064718;28;20024;-81
2024/01/19 09:44:19;;;;;;;14.15;7.57;;;;;;;;;;5047139;28;20028;-81
2024/01/19 09:46:51;;;;;;;11.15;6.68;;;;;;;;;;5046236;28;20030;-81
2024/01/19 09:49:38;;;;;;;11.25;6.70;;;;;;;;;;5063666;28;20564;-81
2024/01/19 09:52:18;;;;;;;15.52;6.90;;;;;;;;;;5064406;28;20037;-81
2024/01/19 09:54:44;;;;;;;16.60;8.18;;;;;;;;;;5063719;28;20243;-81
2024/01/19 09:57:10;;;;;;;10.98;6.78;;;;;;;;;;5049718;28;20036;-81
2024/01/19 09:59:35;;;;;;;13.95;7.22;;;;;;;;;;5031131;28;20497;-80
2024/01/19 10:02:01;;;;;;;10.82;6.35;;;;;;;;;;5046266;28;20032;-80
2024/01/19 10:04:27;;;;;;;12.07;6.80;;;;;;;;;;5045972;28;20053;-80
2024/01/19 10:06:54;;;;;;;8.85;5.68;;;;;;;;;;5065648;28;20024;-80
2024/01/19 10:09:23;;;;;;;12.68;6.53;;;;;;;;;;5063518;28;20055;-80
2024/01/19 10:11:53;;;;;;;12.23;5.75;;;;;;;;;;5068478;28;20039;-81
2024/01/19 10:14:19;;;;;;;8.75;5.32;;;;;;;;;;5047259;28;20024;-79
2024/01/19 10:16:47;;;;;;;13.55;5.68;;;;;;;;;;5048825;28;20531;-80
2024/01/19 10:19:13;;;;;;;12.15;5.63;;;;;;;;;;5048834;28;20036;-80
2024/01/19 10:21:40;;;;;;;10.60;5.57;;;;;;;;;;5048317;28;20430;-80
2024/01/19 10:24:15;;;;;;;10.48;5.53;;;;;;;;;;5069473;28;20050;-80
2024/01/19 10:26:42;;;;;;;7.80;5.07;;;;;;;;;;5048995;28;20029;-80
2024/01/19 10:29:11;;;;;;;12.15;5.43;;;;;;;;;;5055555;28;20024;-80
2024/01/19 10:31:38;;;;;;;12.05;5.93;;;;;;;;;;5071486;28;20027;-80
2024/01/19 10:34:04;;;;;;;11.98;6.28;;;;;;;;;;5073550;28;20028;-80
2024/01/19 10:36:39;;;;;;;11.60;6.22;;;;;;;;;;5050277;28;20112;-80
2024/01/19 10:39:34;;;;;;;11.30;5.80;;;;;;;;;;5055229;28;20090;-80
2024/01/19 10:42:05;;;;;;;12.57;5.53;;;;;;;;;;5039973;28;20036;-80
2024/01/19 10:44:32;;;;;;;7.18;5.13;;;;;;;;;;5052686;28;20048;-81
2024/01/19 10:46:57;;;;;;;9.35;5.50;;;;;;;;;;5059607;28;20028;-81
2024/01/19 10:49:23;;;;;;;9.07;5.32;;;;;;;;;;5065229;28;20504;-80
2024/01/19 10:51:49;;;;;;;10.38;5.47;;;;;;;;;;5044234;28;20040;-80
2024/01/19 10:54:25;;;;;;;9.80;5.03;;;;;;;;;;5061318;28;20024;-81
2024/01/19 10:57:04;;;;;;;9.25;4.93;;;;;;;;;;5046040;28;20036;-81
2024/01/19 10:59:29;;;;;;;11.77;5.30;;;;;;;;;;5046942;28;20055;-80
2024/01/19 11:01:59;;;;;;;10.15;4.15;;;;;;;;;;5060615;28;20467;-80
2024/01/19 11:04:27;;;;;;;8.82;3.83;;;;;;;;;;5038655;28;20025;-80
2024/01/19 11:06:54;;;;;;;7.30;4.25;;;;;;;;;;5063685;28;20041;-80
2024/01/19 11:09:20;;;;;;;10.07;4.97;;;;;;;;;;5043917;28;20044;-83
2024/01/19 11:11:55;;;;;;;10.25;4.45;;;;;;;;;;5047079;28;20036;-80
2024/01/19 11:14:26;;;;;;;7.60;4.45;;;;;;;;;;5050091;28;20092;-80
2024/01/19 11:16:54;;;;;;;6.90;3.70;;;;;;;;;;5067534;28;20071;-81
2024/01/19 11:19:21;;;;;;;9.10;4.28;;;;;;;;;;5050281;28;20033;-80
2024/01/19 11:21:46;;;;;;;6.90;4.05;;;;;;;;;;5068795;28;20043;-81
2024/01/19 11:24:15;;;;;;;10.27;4.60;;;;;;;;;;5049964;28;20028;-80
2024/01/19 11:27:06;;;;;;;10.60;4.13;;;;;;;;;;5043034;28;21201;-80
2024/01/19 11:29:35;;;;;;;8.77;4.10;;;;;;;;;;5043310;28;20049;-80
2024/01/19 11:32:01;;;;;;;7.30;4.28;;;;;;;;;;5044732;28;20032;-80
2024/01/19 11:34:42;;;;;;;9.48;4.25;;;;;;;;;;5059312;28;20053;-80
2024/01/19 11:37:09;;;;;;;7.63;4.35;;;;;;;;;;5063387;28;20040;-80
2024/01/19 11:39:42;;;;;;;9.20;4.47;;;;;;;;;;5061627;28;20040;-79
2024/01/19 11:42:36;;;;;;;;;;;;;;;;;;5064520;28;20035;-80
2024/01/19 11:45:02;;;;;;;7.47;4.00;;;;;;;;;;5047695;28;19912;-79
2024/01/19 11:47:38;;;;;;;7.25;4.85;;;;;;;;;;5050346;28;20036;-79
2024/01/19 11:50:04;;;;;;;7.45;4.53;;;;;;;;;;5049535;28;20048;-79
2024/01/19 11:52:35;;;;;;;9.30;4.53;;;;;;;;;;5063553;28;20032;-79
2024/01/19 11:55:25;;;;;;;9.35;4.80;;;;;;;;;;5061101;28;20050;-79
2024/01/19 11:57:52;;;;;;;7.25;4.30;;;;;;;;;;5053244;28;20037;-80
2024/01/19 12:00:19;;;;;;;12.50;4.40;;;;;;;;;;5046723;28;20123;-79
2024/01/19 12:02:46;;;;;;;9.40;4.97;;;;;;;;;;5070931;28;20123;-79
2024/01/19 12:05:11;;;;;;;11.48;4.60;;;;;;;;;;5064738;28;20320;-81
2024/01/19 12:07:37;;;;;;;7.20;4.15;;;;;;;;;;5059550;28;20421;-81
2024/01/19 12:10:09;;;;;;;7.40;4.78;;;;;;;;;;5066252;28;20094;-80
2024/01/19 12:12:38;;;;;;;8.10;4.68;;;;;;;;;;5046950;28;20029;-81
2024/01/19 12:15:06;;;;;;;9.70;5.03;;;;;;;;;;5065253;28;20118;-80
2024/01/19 12:17:32;;;;;;;9.27;4.55;;;;;;;;;;5047990;28;20111;-81
2024/01/19 12:19:58;;;;;;;9.48;4.60;;;;;;;;;;5057936;28;20081;-81
2024/01/19 12:22:24;;;;;;;9.50;4.95;;;;;;;;;;5068018;28;20175;-81
2024/01/19 12:24:49;;;;;;;9.68;4.60;;;;;;;;;;5063518;28;20035;-81
2024/01/19 12:27:23;;;;;;;7.80;5.10;;;;;;;;;;5064612;28;20032;-81
2024/01/19 12:29:48;;;;;;;8.10;4.55;;;;;;;;;;5057898;28;20096;-81
2024/01/19 12:32:17;;;;;;;11.32;5.03;;;;;;;;;;5063402;28;20549;-81
2024/01/19 12:34:58;;;;;;;11.48;5.18;;;;;;;;;;5047462;28;20032;-81
2024/01/19 12:37:24;;;;;;;7.88;5.03;;;;;;;;;;5061404;28;20044;-80
2024/01/19 12:39:49;;;;;;;8.55;4.63;;;;;;;;;;5033572;28;20043;-78
2024/01/19 12:42:14;;;;;;;11.15;4.68;;;;;;;;;;5061799;28;20555;-79
2024/01/19 12:44:40;;;;;;;10.05;4.93;;;;;;;;;;5040850;28;20024;-78
2024/01/19 12:47:05;;;;;;;7.32;4.32;;;;;;;;;;5043812;28;20024;-78
2024/01/19 12:49:31;;;;;;;10.32;5.00;;;;;;;;;;5044824;28;20123;-78
2024/01/19 12:51:56;;;;;;;8.95;4.40;;;;;;;;;;5056361;28;20789;-78
2024/01/19 12:54:22;;;;;;;8.80;5.15;;;;;;;;;;5064960;28;20094;-78
2024/01/19 12:56:50;;;;;;;8.80;4.30;;;;;;;;;;5045799;28;20028;-78
2024/01/19 12:59:19;;;;;;;8.98;5.40;;;;;;;;;;5060331;28;20032;-78
2024/01/19 13:01:53;;;;;;;10.40;5.07;;;;;;;;;;5043350;28;20056;-78
2024/01/19 13:04:19;;;;;;;12.20;5.32;;;;;;;;;;4998062;28;1305959;-77
2024/01/19 13:06:44;;;;;;;13.55;4.40;;;;;;;;;;5060115;28;20035;-78
2024/01/19 13:09:14;;;;;;;11.45;5.25;;;;;;;;;;5037913;28;20036;-79
2024/01/19 13:11:40;;;;;;;8.38;4.45;;;;;;;;;;5054730;28;20111;-78
2024/01/19 13:14:06;;;;;;;8.90;4.45;;;;;;;;;;5063225;28;20111;-78
2024/01/19 13:16:32;;;;;;;9.98;5.68;;;;;;;;;;5038670;28;20814;-77
2024/01/19 13:19:02;;;;;;;10.70;5.55;;;;;;;;;;5045462;28;20036;-78
2024/01/19 13:21:28;;;;;;;10.02;5.00;;;;;;;;;;5061019;28;20052;-78
2024/01/19 13:23:53;;;;;;;7.70;5.15;;;;;;;;;;5040274;28;20320;-78
2024/01/19 13:26:19;;;;;;;11.82;5.65;;;;;;;;;;5059621;28;20036;-78
2024/01/19 13:28:47;;;;;;;12.85;5.45;;;;;;;;;;5061983;28;20897;-78
2024/01/19 13:31:14;;;;;;;10.95;5.00;;;;;;;;;;5041679;28;20033;-77
2024/01/19 13:33:42;;;;;;;10.85;5.28;;;;;;;;;;5060984;28;20024;-78
2024/01/19 13:36:09;;;;;;;13.68;5.47;;;;;;;;;;5057286;28;20025;-77
2024/01/19 13:38:34;;;;;;;10.80;5.47;;;;;;;;;;5042004;28;20667;-78
2024/01/19 13:41:00;;;;;;;10.43;5.53;;;;;;;;;;5043697;28;20081;-77
2024/01/19 13:43:25;;;;;;;7.90;4.78;;;;;;;;;;5041640;28;20158;-77
2024/01/19 13:45:50;;;;;;;9.43;5.45;;;;;;;;;;5053045;28;20016;-77
2024/01/19 13:48:18;;;;;;;11.15;6.80;;;;;;;;;;5061466;28;20077;-78
2024/01/19 13:50:44;;;;;;;10.88;6.43;;;;;;;;;;5041472;28;20056;-78
2024/01/19 13:53:09;;;;;;;11.07;5.90;;;;;;;;;;5070767;28;20095;-78
2024/01/19 13:55:35;;;;;;;10.88;6.00;;;;;;;;;;5050151;28;20017;-77
2024/01/19 13:58:00;;;;;;;10.40;5.75;;;;;;;;;;5061296;28;20036;-78
2024/01/19 14:00:26;;;;;;;10.88;5.75;;;;;;;;;;5043313;28;20037;-77
2024/01/19 14:02:51;;;;;;;13.55;6.22;;;;;;;;;;5057924;28;20558;-77
2024/01/19 14:05:17;;;;;;;11.52;6.07;;;;;;;;;;5063138;28;20036;-77
2024/01/19 14:07:44;;;;;;;11.98;5.90;;;;;;;;;;5062318;28;20024;-77
2024/01/19 14:10:10;;;;;;;10.00;5.38;;;;;;;;;;5045048;28;20029;-77
2024/01/19 14:12:36;;;;;;;13.23;5.90;;;;;;;;;;5064541;28;20067;-77
2024/01/19 14:15:04;;;;;;;8.85;5.82;;;;;;;;;;5042518;28;20148;-77
2024/01/19 14:17:30;;;;;;;14.63;5.78;;;;;;;;;;5044692;28;20029;-77
2024/01/19 14:19:55;;;;;;;9.38;5.43;;;;;;;;;;5061532;28;20777;-77
2024/01/19 14:22:21;;;;;;;10.07;5.30;;;;;;;;;;5047674;28;20064;-77
2024/01/19 14:24:48;;;;;;;10.60;5.38;;;;;;;;;;5061976;28;20040;-77
2024/01/19 14:27:13;;;;;;;9.40;5.20;;;;;;;;;;5062685;28;20025;-77
2024/01/19 14:29:39;;;;;;;10.15;5.15;;;;;;;;;;5052399;28;20105;-77
2024/01/19 14:32:05;;;;;;;10.57;5.40;;;;;;;;;;5041555;28;20776;-77
2024/01/19 14:34:31;;;;;;;9.10;4.72;;;;;;;;;;5038820;28;20024;-77